Terminal Aerodrome Forecast
Issued by NWS

Home | Current Version | Previous Version | Text Only | Print | Product List | Glossary On
Versions: 1 2 3 4 5 6 7 8 9 10 11 12 13
311
FTUS43 KJKL 161739
TAFSME
TAF
KSME 161739Z 1618/1718 33007KT 4SM -SN BR SCT020 BKN035
     FM161900 32007KT 3SM -SN BR SCT006 OVC015
     FM162200 31006KT 4SM -SHSN BR SCT015 BKN025
     FM170900 VRB04KT P6SM BKN015=

USA.gov is the U.S. government's official web portal to all federal, state and local government web resources and services.